Time;durP1;ratioP1;P1;durP2;ratioP2;P2;SDS_P1;SDS_P2;PMS_P1;PMS_P2;Temp;Humidity;BMP_temperature;BMP_pressure;BME280_temperature;BME280_humidity;BME280_pressure;Samples;Min_cycle;Max_cycle;Signal;HPM_P1;HPM_P2
2023/06/06 00:00:48;;;;;;;8.37;4.77;;;11.60;99.90;;;;;;5051397;28;20281;-77
2023/06/06 00:03:20;;;;;;;7.53;5.30;;;11.60;99.90;;;;;;5051964;28;20190;-77
2023/06/06 00:05:48;;;;;;;6.50;5.13;;;11.60;99.90;;;;;;5051713;28;20505;-77
2023/06/06 00:08:15;;;;;;;7.60;4.83;;;11.50;99.90;;;;;;5051351;28;20237;-77
2023/06/06 00:10:44;;;;;;;7.50;4.93;;;11.50;99.90;;;;;;5052324;28;20202;-77
2023/06/06 00:13:13;;;;;;;5.90;4.70;;;11.50;99.90;;;;;;5050978;28;20656;-76
2023/06/06 00:15:40;;;;;;;8.17;4.70;;;11.50;99.90;;;;;;5051584;28;20202;-77
2023/06/06 00:18:08;;;;;;;6.30;4.50;;;11.40;99.90;;;;;;5052223;28;20289;-77
2023/06/06 00:20:35;;;;;;;5.53;4.50;;;11.40;99.90;;;;;;5050652;28;20202;-77
2023/06/06 00:23:02;;;;;;;7.67;4.67;;;11.40;99.90;;;;;;5051274;28;20287;-76
2023/06/06 00:25:29;;;;;;;6.97;4.90;;;11.30;99.90;;;;;;5052014;28;20233;-77
2023/06/06 00:27:58;;;;;;;10.50;5.73;;;11.30;99.90;;;;;;5051261;28;20196;-76
2023/06/06 00:30:25;;;;;;;8.97;5.07;;;11.30;99.90;;;;;;5052633;28;20529;-77
2023/06/06 00:32:52;;;;;;;7.30;5.00;;;11.20;99.90;;;;;;5055304;28;20202;-76
2023/06/06 00:35:19;;;;;;;7.17;5.10;;;11.20;99.90;;;;;;5050171;28;20214;-76
2023/06/06 00:37:45;;;;;;;10.03;4.90;;;11.10;99.90;;;;;;5035614;28;20194;-76
2023/06/06 00:40:13;;;;;;;8.53;5.20;;;11.10;99.90;;;;;;5046433;28;20206;-77
2023/06/06 00:42:40;;;;;;;8.80;5.33;;;11.00;99.90;;;;;;5054947;28;20205;-76
2023/06/06 00:45:10;;;;;;;6.57;5.10;;;11.00;99.90;;;;;;5054766;28;20659;-75
2023/06/06 00:47:36;;;;;;;8.17;5.03;;;11.00;99.90;;;;;;5054533;28;20277;-77
2023/06/06 00:50:04;;;;;;;9.17;5.40;;;11.00;99.90;;;;;;5055004;28;20212;-77
2023/06/06 00:52:31;;;;;;;6.93;4.47;;;10.90;99.90;;;;;;5054563;28;20326;-77
2023/06/06 00:54:59;;;;;;;7.23;4.73;;;10.90;99.90;;;;;;5035180;28;20245;-77
2023/06/06 00:57:26;;;;;;;7.03;4.60;;;10.90;99.90;;;;;;5035130;28;20289;-77
2023/06/06 00:59:54;;;;;;;6.33;4.07;;;10.90;99.90;;;;;;5044021;28;20202;-76
2023/06/06 01:02:24;;;;;;;7.03;5.27;;;10.90;99.90;;;;;;5054904;28;20205;-77
2023/06/06 01:04:51;;;;;;;7.40;5.07;;;10.90;99.90;;;;;;5054639;28;20217;-77
2023/06/06 01:07:18;;;;;;;6.97;4.73;;;10.90;99.90;;;;;;5054993;28;20212;-76
2023/06/06 01:09:46;;;;;;;7.70;5.13;;;10.90;99.90;;;;;;5037729;28;20299;-74
2023/06/06 01:12:22;;;;;;;6.47;4.77;;;10.90;99.90;;;;;;5034772;28;20229;-74
2023/06/06 01:14:57;;;;;;;9.70;5.07;;;10.90;99.90;;;;;;5034587;28;20622;-75
2023/06/06 01:17:27;;;;;;;5.83;4.87;;;10.80;99.90;;;;;;5034944;28;20202;-75
2023/06/06 01:19:56;;;;;;;7.07;5.07;;;10.80;99.90;;;;;;5054137;28;20206;-75
2023/06/06 01:22:27;;;;;;;7.60;4.60;;;10.80;99.90;;;;;;5054542;28;20524;-74
2023/06/06 01:24:55;;;;;;;9.73;5.10;;;10.70;99.90;;;;;;5053946;28;20190;-74
2023/06/06 01:27:22;;;;;;;8.60;5.47;;;10.60;99.90;;;;;;5053750;28;20220;-74
2023/06/06 01:29:50;;;;;;;5.67;5.07;;;10.60;99.90;;;;;;5054325;28;20198;-75
2023/06/06 01:32:22;;;;;;;6.90;4.83;;;10.60;99.90;;;;;;5053652;28;20812;-75
2023/06/06 01:34:54;;;;;;;7.97;5.53;;;10.50;99.90;;;;;;5034610;28;20207;-75
2023/06/06 01:37:32;;;;;;;7.60;5.30;;;10.50;99.90;;;;;;5034952;28;20595;-77
2023/06/06 01:40:04;;;;;;;9.57;5.63;;;10.40;99.90;;;;;;5034019;28;20191;-76
2023/06/06 01:42:32;;;;;;;7.60;5.20;;;10.40;99.90;;;;;;5034416;28;20201;-76
2023/06/06 01:45:01;;;;;;;5.50;4.67;;;10.40;99.90;;;;;;5034526;28;20205;-74
2023/06/06 01:47:28;;;;;;;7.80;5.20;;;10.30;99.90;;;;;;5033909;28;20290;-74
2023/06/06 01:49:56;;;;;;;7.67;5.70;;;10.30;99.90;;;;;;5034483;28;20197;-74
2023/06/06 01:52:28;;;;;;;7.80;5.93;;;10.30;99.90;;;;;;5033958;28;20325;-74
2023/06/06 01:54:56;;;;;;;6.90;4.50;;;10.30;99.90;;;;;;5033326;28;20495;-75
2023/06/06 01:57:23;;;;;;;7.50;4.90;;;10.20;99.90;;;;;;5034083;28;20194;-75
2023/06/06 01:59:50;;;;;;;7.00;5.17;;;10.20;99.90;;;;;;5034183;28;20522;-76
2023/06/06 02:02:18;;;;;;;8.07;5.23;;;10.20;99.90;;;;;;5052195;28;20208;-76
2023/06/06 02:04:45;;;;;;;7.73;5.23;;;10.20;99.90;;;;;;5053566;28;20226;-74
2023/06/06 02:07:12;;;;;;;8.40;5.23;;;10.30;99.90;;;;;;5048678;28;20221;-74
2023/06/06 02:09:39;;;;;;;10.47;5.43;;;10.30;99.90;;;;;;5033997;28;20206;-75
2023/06/06 02:12:08;;;;;;;6.93;5.33;;;10.30;99.90;;;;;;5033674;28;20220;-75
2023/06/06 02:14:35;;;;;;;9.37;5.30;;;10.30;99.90;;;;;;5033651;28;20205;-74
2023/06/06 02:17:03;;;;;;;6.53;4.80;;;10.30;99.90;;;;;;5041714;28;20594;-75
2023/06/06 02:19:30;;;;;;;8.33;4.70;;;10.30;99.90;;;;;;5053371;28;20638;-74
2023/06/06 02:21:57;;;;;;;7.50;5.37;;;10.30;99.90;;;;;;5052449;28;20300;-74
2023/06/06 02:24:25;;;;;;;8.53;4.83;;;10.30;99.90;;;;;;5053261;28;20615;-74
2023/06/06 02:26:53;;;;;;;6.67;4.93;;;10.30;99.90;;;;;;5053662;28;20202;-75
2023/06/06 02:29:24;;;;;;;7.43;5.70;;;10.40;99.90;;;;;;5052398;28;20201;-75
2023/06/06 02:31:51;;;;;;;10.23;5.57;;;10.40;99.90;;;;;;5053170;28;20198;-77
2023/06/06 02:34:18;;;;;;;10.57;5.70;;;10.40;99.90;;;;;;5053418;28;20221;-77
2023/06/06 02:36:45;;;;;;;7.80;5.50;;;10.40;99.90;;;;;;5052739;28;20198;-77
2023/06/06 02:39:12;;;;;;;8.93;5.43;;;10.40;99.90;;;;;;5053102;28;20292;-77
2023/06/06 02:41:38;;;;;;;7.30;5.53;;;10.50;99.90;;;;;;5053195;28;20198;-76
2023/06/06 02:44:05;;;;;;;8.37;5.47;;;10.50;99.90;;;;;;5036206;28;20222;-77
2023/06/06 02:46:34;;;;;;;9.43;5.90;;;10.50;99.90;;;;;;5033514;28;20519;-75
2023/06/06 02:49:01;;;;;;;7.77;5.80;;;10.60;99.90;;;;;;5032926;28;20277;-76
2023/06/06 02:51:28;;;;;;;11.37;5.93;;;10.60;99.90;;;;;;5032531;28;20325;-75
2023/06/06 02:53:55;;;;;;;9.03;5.83;;;10.70;99.90;;;;;;5032497;28;20197;-75
2023/06/06 02:56:21;;;;;;;10.70;5.97;;;10.70;99.90;;;;;;5038626;28;20205;-75
2023/06/06 02:58:48;;;;;;;7.37;5.63;;;10.70;99.90;;;;;;5052433;28;20277;-75
2023/06/06 03:01:15;;;;;;;8.47;5.93;;;10.80;99.90;;;;;;5048227;28;20551;-75
2023/06/06 03:03:44;;;;;;;13.43;6.07;;;10.80;99.90;;;;;;5032347;28;20748;-74
2023/06/06 03:06:12;;;;;;;10.67;6.20;;;10.80;99.90;;;;;;5033128;28;20223;-77
2023/06/06 03:08:40;;;;;;;9.07;6.17;;;10.90;99.90;;;;;;5032893;28;20194;-77
2023/06/06 03:11:07;;;;;;;11.67;6.27;;;11.00;99.90;;;;;;5032244;28;20199;-76
2023/06/06 03:13:35;;;;;;;9.53;6.17;;;11.00;99.90;;;;;;5032938;28;20238;-77
2023/06/06 03:16:02;;;;;;;14.30;6.83;;;11.00;99.90;;;;;;5040445;28;20230;-77
2023/06/06 03:18:29;;;;;;;11.83;6.70;;;11.00;99.90;;;;;;5052265;28;20229;-77
2023/06/06 03:20:57;;;;;;;8.90;5.50;;;11.10;99.90;;;;;;5052060;28;20634;-77
2023/06/06 03:23:24;;;;;;;7.20;5.47;;;11.00;99.90;;;;;;5052313;28;20206;-77
2023/06/06 03:25:51;;;;;;;8.20;5.93;;;11.10;99.90;;;;;;5041150;28;20630;-77
2023/06/06 03:28:19;;;;;;;12.60;7.73;;;11.10;99.90;;;;;;5032366;28;20662;-76
2023/06/06 03:30:46;;;;;;;10.40;6.70;;;11.10;99.90;;;;;;5032435;28;20204;-77
2023/06/06 03:33:14;;;;;;;10.43;6.30;;;11.10;99.90;;;;;;5033121;28;20202;-77
2023/06/06 03:35:41;;;;;;;10.67;6.70;;;11.10;99.90;;;;;;5032309;28;20578;-77
2023/06/06 03:38:09;;;;;;;15.00;6.90;;;11.20;99.90;;;;;;5032343;28;20285;-77
2023/06/06 03:40:37;;;;;;;12.90;6.87;;;11.20;99.90;;;;;;5035588;28;20831;-76
2023/06/06 03:43:03;;;;;;;11.90;7.53;;;11.20;99.90;;;;;;5051735;28;20279;-76
2023/06/06 03:45:30;;;;;;;11.23;6.03;;;11.20;99.90;;;;;;5052113;28;20737;-77
2023/06/06 03:47:57;;;;;;;12.03;6.30;;;11.30;99.90;;;;;;5051513;28;20572;-77
2023/06/06 03:50:24;;;;;;;10.17;7.00;;;11.20;99.90;;;;;;5052407;28;20297;-78
2023/06/06 03:52:51;;;;;;;10.37;6.70;;;11.20;99.90;;;;;;5047209;28;20596;-77
2023/06/06 03:55:19;;;;;;;12.00;6.47;;;11.30;99.90;;;;;;5032516;28;20194;-77
2023/06/06 03:57:46;;;;;;;11.67;6.20;;;11.30;99.90;;;;;;5031671;28;20502;-76
2023/06/06 04:00:14;;;;;;;13.73;6.67;;;11.40;99.90;;;;;;5032225;28;20205;-77
2023/06/06 04:02:41;;;;;;;11.80;6.20;;;11.50;99.90;;;;;;5032372;28;20298;-77
2023/06/06 04:05:09;;;;;;;8.80;5.70;;;11.40;99.90;;;;;;5046086;28;20321;-77
2023/06/06 04:07:36;;;;;;;14.57;4.97;;;11.40;99.90;;;;;;5054151;28;20201;-77
2023/06/06 04:10:04;;;;;;;10.53;5.23;;;11.50;99.90;;;;;;5035850;28;20201;-77
2023/06/06 04:12:33;;;;;;;10.47;5.37;;;11.50;99.90;;;;;;5036305;28;20252;-76
2023/06/06 04:14:59;;;;;;;12.13;5.90;;;11.50;99.90;;;;;;5036148;28;20205;-78
2023/06/06 04:17:26;;;;;;;10.60;5.57;;;11.60;99.90;;;;;;5036015;28;20293;-77
2023/06/06 04:19:55;;;;;;;12.07;5.50;;;11.60;99.90;;;;;;5036540;28;20257;-76
2023/06/06 04:22:23;;;;;;;10.80;6.33;;;11.70;99.90;;;;;;5035555;28;20701;-76
2023/06/06 04:24:50;;;;;;;8.87;4.73;;;11.70;99.90;;;;;;5035431;28;20214;-76
2023/06/06 04:27:18;;;;;;;11.53;4.87;;;11.80;99.90;;;;;;5036019;28;20211;-78
2023/06/06 04:29:50;;;;;;;10.03;4.93;;;11.80;99.90;;;;;;5035079;28;20207;-76
2023/06/06 04:32:19;;;;;;;8.90;5.57;;;11.90;99.90;;;;;;5037355;28;20492;-77
2023/06/06 04:34:46;;;;;;;9.53;5.33;;;12.00;99.90;;;;;;5055275;28;20202;-77
2023/06/06 04:37:17;;;;;;;9.97;4.80;;;12.00;99.90;;;;;;5054940;28;20230;-76
2023/06/06 04:39:44;;;;;;;6.97;4.37;;;12.10;99.90;;;;;;5054733;28;20210;-76
2023/06/06 04:42:12;;;;;;;9.10;5.40;;;12.10;99.90;;;;;;5054793;28;20221;-77
2023/06/06 04:44:41;;;;;;;9.40;5.37;;;12.10;99.90;;;;;;5054989;28;20324;-77
2023/06/06 04:47:10;;;;;;;8.90;5.43;;;12.10;99.90;;;;;;5048411;28;20634;-77
2023/06/06 04:49:40;;;;;;;9.43;5.07;;;12.10;99.90;;;;;;5034764;28;20209;-78
2023/06/06 04:52:08;;;;;;;10.70;4.90;;;12.20;99.90;;;;;;5047853;28;20575;-76
2023/06/06 04:54:37;;;;;;;7.53;4.40;;;12.30;99.90;;;;;;5054826;28;20190;-77
2023/06/06 04:57:05;;;;;;;10.70;5.57;;;12.30;99.90;;;;;;5054192;28;20209;-78
2023/06/06 04:59:32;;;;;;;11.10;5.93;;;12.50;99.90;;;;;;5055037;28;20256;-77
2023/06/06 05:02:01;;;;;;;8.20;5.20;;;12.70;99.90;;;;;;5055096;28;20202;-77
2023/06/06 05:04:31;;;;;;;9.37;4.60;;;13.00;99.90;;;;;;5054653;28;20221;-78
2023/06/06 05:06:58;;;;;;;10.60;4.93;;;13.30;99.90;;;;;;5038483;28;20210;-76
2023/06/06 05:09:26;;;;;;;9.80;4.47;;;13.70;99.90;;;;;;5035305;28;20256;-77
2023/06/06 05:11:54;;;;;;;10.63;4.87;;;13.80;99.90;;;;;;5034274;28;20202;-77
2023/06/06 05:14:23;;;;;;;7.90;4.80;;;14.00;99.90;;;;;;5033751;28;20206;-77
2023/06/06 05:16:51;;;;;;;11.40;5.43;;;14.30;99.90;;;;;;5053283;28;20693;-77
2023/06/06 05:19:18;;;;;;;9.18;4.63;;;14.50;99.90;;;;;;5054278;28;20194;-77
2023/06/06 05:21:47;;;;;;;8.30;4.30;;;14.60;99.90;;;;;;5054254;28;20233;-76
2023/06/06 05:24:14;;;;;;;11.68;5.07;;;14.70;99.90;;;;;;5054299;28;20198;-77
2023/06/06 05:26:41;;;;;;;7.38;4.68;;;14.90;99.90;;;;;;5054709;28;20267;-77
2023/06/06 05:29:08;;;;;;;5.68;4.15;;;15.00;99.90;;;;;;5054291;28;20213;-76
2023/06/06 05:31:35;;;;;;;11.00;5.03;;;15.10;99.90;;;;;;5054522;28;20200;-76
2023/06/06 05:34:03;;;;;;;8.95;4.53;;;15.40;99.90;;;;;;5054280;28;20194;-77
2023/06/06 05:36:30;;;;;;;9.20;5.20;;;15.60;99.90;;;;;;5054615;28;20194;-76
2023/06/06 05:39:00;;;;;;;10.00;5.25;;;15.60;99.90;;;;;;5053569;28;20595;-76
2023/06/06 05:41:27;;;;;;;11.45;4.88;;;15.60;99.90;;;;;;5053341;28;20202;-77
2023/06/06 05:43:53;;;;;;;9.80;5.22;;;15.80;99.90;;;;;;5034319;28;20248;-77
2023/06/06 05:46:20;;;;;;;8.35;4.97;;;16.00;99.90;;;;;;5033793;28;20223;-77
2023/06/06 05:48:47;;;;;;;10.00;5.32;;;16.20;99.90;;;;;;5033907;28;20182;-77
2023/06/06 05:51:15;;;;;;;10.20;5.13;;;16.40;99.90;;;;;;5034011;28;20241;-77
2023/06/06 05:53:44;;;;;;;6.13;4.90;;;16.40;99.90;;;;;;5033549;28;20198;-76
2023/06/06 05:56:16;;;;;;;9.77;5.68;;;16.40;99.90;;;;;;5040396;28;20198;-78
2023/06/06 05:58:45;;;;;;;10.63;5.63;;;16.50;99.90;;;;;;5054349;28;20277;-82
2023/06/06 06:01:12;;;;;;;8.15;5.22;;;16.60;99.90;;;;;;5037054;28;20290;-77
2023/06/06 06:03:40;;;;;;;9.32;4.60;;;16.60;99.90;;;;;;5033975;28;20199;-77
2023/06/06 06:06:08;;;;;;;8.25;5.78;;;16.70;99.90;;;;;;5033622;28;20237;-77
2023/06/06 06:08:35;;;;;;;10.45;5.88;;;16.70;99.90;;;;;;5043833;28;20205;-75
2023/06/06 06:11:02;;;;;;;8.98;5.25;;;16.70;99.90;;;;;;5053689;28;20280;-76
2023/06/06 06:13:31;;;;;;;6.68;4.47;;;16.80;99.90;;;;;;5053392;28;20190;-76
2023/06/06 06:15:58;;;;;;;10.05;6.00;;;17.00;99.90;;;;;;5052956;28;20281;-75
2023/06/06 06:18:24;;;;;;;9.07;5.28;;;17.10;99.90;;;;;;5053776;28;20259;-75
2023/06/06 06:20:51;;;;;;;8.18;4.88;;;17.20;99.90;;;;;;5034598;28;20206;-76
2023/06/06 06:23:18;;;;;;;10.95;5.75;;;17.30;99.90;;;;;;5033637;28;20205;-77
2023/06/06 06:25:46;;;;;;;9.73;5.43;;;17.30;99.90;;;;;;5033920;28;20226;-76
2023/06/06 06:28:20;;;;;;;11.65;5.82;;;17.30;99.90;;;;;;5032444;28;20206;-76
2023/06/06 06:30:48;;;;;;;12.07;6.28;;;17.40;99.90;;;;;;5037034;28;20201;-76
2023/06/06 06:33:16;;;;;;;13.35;6.05;;;17.50;99.90;;;;;;5053661;28;20201;-79
2023/06/06 06:35:43;;;;;;;11.82;5.97;;;17.50;99.90;;;;;;5052830;28;20190;-75
2023/06/06 06:38:10;;;;;;;6.40;4.88;;;17.70;99.90;;;;;;5052849;28;20289;-75
2023/06/06 06:40:37;;;;;;;8.60;5.13;;;17.90;99.90;;;;;;5051892;28;20608;-75
2023/06/06 06:43:04;;;;;;;11.93;6.15;;;18.10;99.90;;;;;;5053033;28;20204;-76
2023/06/06 06:45:32;;;;;;;8.90;5.90;;;18.30;99.90;;;;;;5052738;28;20268;-74
2023/06/06 06:48:02;;;;;;;9.77;5.97;;;18.40;99.90;;;;;;5053155;28;20201;-75
2023/06/06 06:50:29;;;;;;;11.07;5.85;;;18.60;99.90;;;;;;5052009;28;20641;-74
2023/06/06 06:52:57;;;;;;;11.45;5.20;;;18.70;99.90;;;;;;5046548;28;20776;-74
2023/06/06 06:55:25;;;;;;;8.57;4.97;;;18.90;99.90;;;;;;5032697;28;20205;-76
2023/06/06 06:57:53;;;;;;;10.85;5.07;;;19.00;99.90;;;;;;5032312;28;20198;-75
2023/06/06 07:00:23;;;;;;;9.93;5.80;;;19.10;99.90;;;;;;5031975;28;20463;-77
2023/06/06 07:02:51;;;;;;;10.05;5.60;;;19.10;99.90;;;;;;5033061;28;20621;-75
2023/06/06 07:05:20;;;;;;;10.48;6.32;;;18.80;99.90;;;;;;5032046;28;20606;-74
2023/06/06 07:07:48;;;;;;;9.73;5.40;;;18.70;99.90;;;;;;5032645;28;20544;-75
2023/06/06 07:10:15;;;;;;;8.50;5.63;;;18.90;99.90;;;;;;5036712;28;20763;-75
2023/06/06 07:12:42;;;;;;;12.93;6.47;;;19.20;99.90;;;;;;5032303;28;20285;-77
2023/06/06 07:15:10;;;;;;;7.88;5.13;;;19.50;99.90;;;;;;5031740;28;20199;-77
2023/06/06 07:17:37;;;;;;;10.55;5.45;;;19.50;99.90;;;;;;5038422;28;20293;-75
2023/06/06 07:20:05;;;;;;;8.05;4.60;;;19.60;99.90;;;;;;5034472;28;20198;-75
2023/06/06 07:22:35;;;;;;;11.32;5.25;;;19.70;99.90;;;;;;5032314;28;20518;-76
2023/06/06 07:25:03;;;;;;;10.85;5.18;;;19.80;99.90;;;;;;5051372;28;20587;-76
2023/06/06 07:27:33;;;;;;;8.48;5.07;;;20.00;99.90;;;;;;5043038;28;20622;-76
2023/06/06 07:30:02;;;;;;;8.80;5.10;;;20.10;99.90;;;;;;5032033;28;20850;-76
2023/06/06 07:32:30;;;;;;;7.80;4.53;;;20.00;99.90;;;;;;5033989;28;20209;-75
2023/06/06 07:34:57;;;;;;;6.25;4.55;;;20.00;99.90;;;;;;5033389;28;20199;-76
2023/06/06 07:37:24;;;;;;;12.23;5.25;;;20.00;99.90;;;;;;5031669;28;20252;-77
2023/06/06 07:39:52;;;;;;;10.73;4.95;;;20.20;99.90;;;;;;5032212;28;20198;-75
2023/06/06 07:42:20;;;;;;;8.70;4.80;;;20.20;99.90;;;;;;5031620;28;20205;-76
2023/06/06 07:44:48;;;;;;;8.95;4.50;;;20.10;99.90;;;;;;5039185;28;20206;-75
2023/06/06 07:47:15;;;;;;;11.82;4.57;;;20.20;99.90;;;;;;5032853;28;20222;-76
2023/06/06 07:49:43;;;;;;;7.93;4.32;;;20.40;99.90;;;;;;5052002;28;20204;-76
2023/06/06 07:52:11;;;;;;;8.27;4.50;;;20.50;99.90;;;;;;5044261;28;20701;-77
2023/06/06 07:54:38;;;;;;;10.25;4.80;;;20.50;99.90;;;;;;5032002;28;20198;-74
2023/06/06 07:57:08;;;;;;;8.77;4.50;;;20.30;99.90;;;;;;5032896;28;20207;-76
2023/06/06 07:59:35;;;;;;;7.78;4.35;;;20.20;99.90;;;;;;5031990;28;20256;-76
2023/06/06 08:02:02;;;;;;;8.90;4.22;;;20.30;99.90;;;;;;5032029;28;20293;-76
2023/06/06 08:04:29;;;;;;;6.25;4.13;;;20.50;99.90;;;;;;5032088;28;20203;-75
2023/06/06 08:06:56;;;;;;;8.27;4.32;;;20.70;99.90;;;;;;5034905;28;20518;-75
2023/06/06 08:09:23;;;;;;;9.02;4.13;;;20.90;99.90;;;;;;5051269;28;20289;-77
2023/06/06 08:11:50;;;;;;;6.75;4.78;;;21.10;99.90;;;;;;5046972;28;20448;-76
2023/06/06 08:14:18;;;;;;;7.07;4.32;;;21.40;99.90;;;;;;5031049;28;20198;-78
2023/06/06 08:16:45;;;;;;;9.63;5.18;;;21.50;99.90;;;;;;5035243;28;20536;-77
2023/06/06 08:19:12;;;;;;;5.97;3.88;;;21.70;99.90;;;;;;5051797;28;20197;-77
2023/06/06 08:21:39;;;;;;;9.88;4.15;;;21.70;99.90;;;;;;5051019;28;20208;-76
2023/06/06 08:24:06;;;;;;;10.52;4.55;;;21.80;99.90;;;;;;5051066;28;20315;-75
2023/06/06 08:26:33;;;;;;;8.20;4.00;;;21.40;99.90;;;;;;5050054;28;20305;-75
2023/06/06 08:29:00;;;;;;;6.28;3.83;;;21.40;99.90;;;;;;5048807;28;20218;-75
2023/06/06 08:31:29;;;;;;;8.05;4.53;;;21.50;99.90;;;;;;5050807;28;20206;-75
2023/06/06 08:33:56;;;;;;;10.63;4.40;;;21.40;99.90;;;;;;5050071;28;20202;-76
2023/06/06 08:36:23;;;;;;;6.30;3.85;;;21.50;99.90;;;;;;5038153;28;20209;-76
2023/06/06 08:38:51;;;;;;;6.00;4.20;;;21.60;99.90;;;;;;5031506;28;20205;-75
2023/06/06 08:41:19;;;;;;;7.22;4.13;;;21.80;99.90;;;;;;5050751;28;20210;-75
2023/06/06 08:43:47;;;;;;;6.10;4.25;;;22.10;99.90;;;;;;5051404;28;20277;-76
2023/06/06 08:46:15;;;;;;;6.85;4.20;;;22.10;99.90;;;;;;5051514;28;20305;-76
2023/06/06 08:48:44;;;;;;;9.52;4.75;;;22.20;99.90;;;;;;5040059;28;20634;-77
2023/06/06 08:51:13;;;;;;;8.00;4.03;;;22.00;99.90;;;;;;5031818;28;20313;-77
2023/06/06 08:53:42;;;;;;;9.05;4.55;;;21.90;99.90;;;;;;5043114;28;20598;-76
2023/06/06 08:56:11;;;;;;;7.22;3.90;;;22.00;99.90;;;;;;5054410;28;20285;-77
2023/06/06 08:58:38;;;;;;;6.45;4.18;;;21.90;99.90;;;;;;5055098;28;20299;-74
2023/06/06 09:01:07;;;;;;;7.70;4.75;;;21.70;99.90;;;;;;5044027;28;20240;-75
2023/06/06 09:03:35;;;;;;;6.55;4.28;;;21.80;99.90;;;;;;5034854;28;20206;-78
2023/06/06 09:06:06;;;;;;;7.10;4.10;;;21.90;99.90;;;;;;5035419;28;20280;-75
2023/06/06 09:08:33;;;;;;;7.75;4.60;;;21.90;99.90;;;;;;5035215;28;20199;-76
2023/06/06 09:11:00;;;;;;;5.18;3.63;;;21.90;99.90;;;;;;5034882;28;20290;-75
2023/06/06 09:13:27;;;;;;;10.00;5.15;;;22.10;99.90;;;;;;5034589;28;20195;-75
2023/06/06 09:15:54;;;;;;;6.53;3.33;;;22.10;99.90;;;;;;5034966;28;20558;-75
2023/06/06 09:18:22;;;;;;;9.23;3.75;;;22.30;99.90;;;;;;5034344;28;20191;-76
2023/06/06 09:20:53;;;;;;;8.10;4.43;;;22.40;99.90;;;;;;5035066;28;20206;-78
2023/06/06 09:23:21;;;;;;;5.85;3.85;;;22.50;99.90;;;;;;5034299;28;20594;-76
2023/06/06 09:25:48;;;;;;;11.10;4.30;;;22.60;99.90;;;;;;5044922;28;20228;-77
2023/06/06 09:28:15;;;;;;;5.68;4.10;;;22.50;99.90;;;;;;5053770;28;20577;-77
2023/06/06 09:30:42;;;;;;;6.10;3.63;;;22.40;99.90;;;;;;5044510;28;20206;-76
2023/06/06 09:33:10;;;;;;;6.55;3.25;;;22.40;99.90;;;;;;5032939;28;20289;-77
2023/06/06 09:35:42;;;;;;;6.93;3.58;;;22.60;99.90;;;;;;5044061;28;20224;-77
2023/06/06 09:38:15;;;;;;;6.82;3.88;;;22.90;99.90;;;;;;5051952;28;20220;-78
2023/06/06 09:40:48;;;;;;;7.38;3.78;;;23.00;99.90;;;;;;5052174;28;20795;-76
2023/06/06 09:43:16;;;;;;;5.65;3.78;;;23.10;99.90;;;;;;5047777;28;20639;-80
2023/06/06 09:45:50;;;;;;;13.50;4.57;;;22.70;99.90;;;;;;5052088;28;20580;-78
2023/06/06 09:48:21;;;;;;;9.52;4.22;;;22.60;99.90;;;;;;5053284;28;20209;-78
2023/06/06 09:50:48;;;;;;;7.63;3.47;;;22.30;99.90;;;;;;5053517;28;21554;-76
2023/06/06 09:53:16;;;;;;;11.55;3.85;;;22.50;99.90;;;;;;5052078;28;20318;-79
2023/06/06 09:55:43;;;;;;;5.07;3.28;;;22.50;99.90;;;;;;5053487;28;20213;-77
2023/06/06 09:58:15;;;;;;;8.35;4.65;;;22.80;99.90;;;;;;5045779;28;20293;-78
2023/06/06 10:00:44;;;;;;;5.82;3.55;;;22.60;99.90;;;;;;5053169;28;20213;-76
2023/06/06 10:03:18;;;;;;;8.27;4.50;;;22.80;99.90;;;;;;5053347;28;20637;-77
2023/06/06 10:05:46;;;;;;;9.02;4.85;;;22.80;99.90;;;;;;5041242;28;20245;-75
2023/06/06 10:08:14;;;;;;;6.85;3.83;;;22.90;99.90;;;;;;5032727;28;20306;-76
2023/06/06 10:10:43;;;;;;;7.70;4.53;;;22.80;99.90;;;;;;5046761;28;20206;-76
2023/06/06 10:13:13;;;;;;;6.10;3.85;;;23.00;99.90;;;;;;5052251;28;20230;-76
2023/06/06 10:15:41;;;;;;;8.82;4.13;;;23.10;99.90;;;;;;5048131;28;20206;-76
2023/06/06 10:18:09;;;;;;;5.53;3.95;;;23.10;99.90;;;;;;5033512;28;20709;-78
2023/06/06 10:20:36;;;;;;;5.22;4.18;;;23.00;99.90;;;;;;5052725;28;20324;-77
2023/06/06 10:23:04;;;;;;;6.65;4.45;;;22.70;99.90;;;;;;5052563;28;20202;-77
2023/06/06 10:25:31;;;;;;;5.35;4.38;;;23.00;99.90;;;;;;5046666;28;20214;-77
2023/06/06 10:28:09;;;;;;;7.10;4.50;;;23.10;99.90;;;;;;5031892;28;20227;-77
2023/06/06 10:30:51;;;;;;;7.97;5.03;;;23.20;99.90;;;;;;5032990;28;20202;-78
2023/06/06 10:33:28;;;;;;;6.13;4.55;;;23.20;99.90;;;;;;5033331;28;20230;-78
2023/06/06 10:35:58;;;;;;;5.72;5.07;;;23.00;99.90;;;;;;5046674;28;20216;-78
2023/06/06 10:38:25;;;;;;;9.23;5.10;;;22.90;99.90;;;;;;5052651;28;20229;-82
2023/06/06 10:40:54;;;;;;;9.35;4.65;;;23.00;99.90;;;;;;5052126;28;20210;-79
2023/06/06 10:43:41;;;;;;;7.43;4.35;;;23.00;99.90;;;;;;5037886;28;20206;-78
2023/06/06 10:46:10;;;;;;;7.07;4.50;;;23.20;99.90;;;;;;5039539;28;20511;-77
2023/06/06 10:48:37;;;;;;;8.88;4.53;;;23.30;99.90;;;;;;5052590;28;20208;-78
2023/06/06 10:51:05;;;;;;;8.30;5.18;;;23.50;99.90;;;;;;5052971;28;20233;-79
2023/06/06 10:53:32;;;;;;;9.50;4.78;;;23.20;99.90;;;;;;5049720;28;20609;-77
2023/06/06 10:55:59;;;;;;;9.18;4.97;;;23.00;99.90;;;;;;5031845;28;20195;-79
2023/06/06 10:58:32;;;;;;;6.43;4.63;;;23.00;99.90;;;;;;5033056;28;20216;-77
2023/06/06 11:01:01;;;;;;;8.30;5.13;;;23.20;99.90;;;;;;5032915;28;20199;-80
2023/06/06 11:03:36;;;;;;;7.60;4.97;;;23.20;99.90;;;;;;5033090;28;20203;-80
2023/06/06 11:06:09;;;;;;;9.05;5.72;;;23.30;99.90;;;;;;5033360;28;20308;-79
2023/06/06 11:08:39;;;;;;;6.40;4.63;;;23.30;99.90;;;;;;5036282;28;20205;-77
2023/06/06 11:11:20;;;;;;;9.52;4.97;;;23.10;99.90;;;;;;5052369;28;20213;-79
2023/06/06 11:13:56;;;;;;;7.50;5.32;;;23.20;99.90;;;;;;5031804;28;20222;-77
2023/06/06 11:16:45;;;;;;;6.75;5.35;;;23.20;99.90;;;;;;5032342;28;20182;-82
2023/06/06 11:19:15;;;;;;;11.07;5.50;;;23.20;99.90;;;;;;5032366;28;20203;-79
2023/06/06 11:21:43;;;;;;;7.32;5.05;;;23.30;99.90;;;;;;5043301;28;20225;-81
2023/06/06 11:24:11;;;;;;;7.25;4.75;;;23.00;99.90;;;;;;5052286;28;20595;-79
2023/06/06 11:26:40;;;;;;;7.13;4.70;;;23.10;99.90;;;;;;5052127;28;20309;-82
2023/06/06 11:29:09;;;;;;;6.38;4.80;;;23.20;99.90;;;;;;5051673;28;20202;-80
2023/06/06 11:31:37;;;;;;;8.55;4.82;;;23.40;99.90;;;;;;5032239;28;20206;-83
2023/06/06 11:34:06;;;;;;;9.85;5.10;;;23.30;99.90;;;;;;5036631;28;20603;-80
2023/06/06 11:36:35;;;;;;;7.80;5.22;;;23.20;99.90;;;;;;5052784;28;20198;-79
2023/06/06 11:39:04;;;;;;;9.85;5.32;;;22.90;99.90;;;;;;5045425;28;20202;-83
2023/06/06 11:41:31;;;;;;;7.93;4.70;;;22.80;99.90;;;;;;5032403;28;20191;-78
2023/06/06 11:43:58;;;;;;;6.55;4.90;;;22.90;99.90;;;;;;5031395;28;20199;-77
2023/06/06 11:46:25;;;;;;;7.90;5.05;;;23.00;99.90;;;;;;5032463;28;20214;-77
2023/06/06 11:48:57;;;;;;;7.85;5.57;;;23.10;99.90;;;;;;5041693;28;20284;-82
2023/06/06 11:51:24;;;;;;;6.53;4.55;;;23.10;99.90;;;;;;5051934;28;20222;-78
2023/06/06 11:53:52;;;;;;;12.45;4.80;;;23.10;99.90;;;;;;5051631;28;20200;-79
2023/06/06 11:56:21;;;;;;;8.60;5.35;;;23.10;99.90;;;;;;5032966;28;20245;-80
2023/06/06 11:58:48;;;;;;;7.63;4.47;;;22.80;99.90;;;;;;5031797;28;20203;-76
2023/06/06 12:01:15;;;;;;;10.93;5.32;;;22.90;99.90;;;;;;5033670;28;20203;-78
2023/06/06 12:03:45;;;;;;;6.07;4.43;;;22.90;99.90;;;;;;5042566;28;20229;-77
2023/06/06 12:06:11;;;;;;;8.00;5.32;;;23.00;99.90;;;;;;5051709;28;20253;-80
2023/06/06 12:08:39;;;;;;;7.70;5.47;;;23.00;99.90;;;;;;5052137;28;20526;-78
2023/06/06 12:11:24;;;;;;;9.02;4.97;;;23.00;99.90;;;;;;5051341;28;20232;-78
2023/06/06 12:13:52;;;;;;;8.05;5.38;;;23.10;99.90;;;;;;5051575;28;20228;-79
2023/06/06 12:16:23;;;;;;;9.30;5.75;;;23.30;99.90;;;;;;5051430;28;20740;-78
2023/06/06 12:18:51;;;;;;;8.98;5.55;;;23.20;99.90;;;;;;5051824;28;20289;-78
2023/06/06 12:21:18;;;;;;;8.63;5.78;;;23.00;99.90;;;;;;5050918;28;20285;-78
2023/06/06 12:23:45;;;;;;;7.90;5.35;;;22.90;99.90;;;;;;5042396;28;20214;-80
2023/06/06 12:26:13;;;;;;;8.75;5.25;;;23.00;99.90;;;;;;5031755;28;20207;-74
2023/06/06 12:28:58;;;;;;;5.78;5.10;;;23.10;99.90;;;;;;5036332;28;20218;-78
2023/06/06 12:31:25;;;;;;;11.00;5.65;;;23.30;99.90;;;;;;5036182;28;20208;-80
2023/06/06 12:33:52;;;;;;;8.80;5.55;;;23.20;99.90;;;;;;5053250;28;20206;-77
2023/06/06 12:36:21;;;;;;;8.45;5.43;;;23.40;99.90;;;;;;5055696;28;20602;-77
2023/06/06 12:38:58;;;;;;;7.80;5.20;;;23.50;99.90;;;;;;5055333;28;20201;-79
2023/06/06 12:41:36;;;;;;;8.75;5.45;;;23.40;99.90;;;;;;5055393;28;20225;-78
2023/06/06 12:44:06;;;;;;;10.13;5.78;;;23.10;99.90;;;;;;5055050;28;20205;-79
2023/06/06 12:46:34;;;;;;;8.65;6.00;;;23.20;99.90;;;;;;5055402;28;20617;-76
2023/06/06 12:49:01;;;;;;;9.13;5.85;;;23.10;99.90;;;;;;5054753;28;20603;-75